PWSweather.com
Personal Weather Stations
Station Observations
KNCCHINA3
Red Tractor Trail, China Grove, NC 28023

Red Tractor TrailChina Grove, NC 28023

Lat: 35.59751, Lon: -80.60201

Elevation: 800

Station Type: Oregon Scientific WMR 968

http://www.joesweathergarage.com

High Low Average
Temperature 81.3°F27.4°F 62.4°F16.9°F 68.0°F20.0°F
Dew Point 67.2°F19.6°F 60.4°F15.8°F 63.6°F17.6°F
Winds 11.9 mph SSW19.2 mph SSW Calm Calm 4.6 mph 7.4 mph
Wind Gusts 19.6 mph31.5 mph -- 7.9 mph12.7 mph
Humidity 98% 58% 87%
Pressure 30.47 in1031.80 in 30.33 in1027.10 in -
Precipitation 0.00 in0.00 in - -
Hour Temp Dew Point Humidity Winds Wind Gusts Pressure Precip Precip Rate Daily Precip Total
12:01 AM 64.7°F18.2°C 64.1°F17.8°C 98% 5.6 mph S9.0 kmh S 7.2 mph11.6 kmh 30.39 in1029.1 mb 0.00 in0.0 mm 0.00 in0.0 mm 0.00 in0.0 mm
12:06 AM 64.7°F18.2°C 64.1°F17.8°C 98% 5.0 mph S8.0 kmh S 7.2 mph11.6 kmh 30.39 in1029.1 mb 0.00 in0.0 mm 0.00 in0.0 mm 0.00 in0.0 mm
12:11 AM 64.6°F18.1°C 64.0°F17.8°C 98% 4.6 mph S7.4 kmh S 8.6 mph13.8 kmh 30.39 in1029.1 mb 0.00 in0.0 mm 0.00 in0.0 mm 0.00 in0.0 mm
12:16 AM 64.6°F18.1°C 64.0°F17.8°C 98% 5.9 mph S9.5 kmh S 9.0 mph14.5 kmh 30.39 in1029.1 mb 0.00 in0.0 mm 0.00 in0.0 mm 0.00 in0.0 mm
12:21 AM 64.6°F18.1°C 64.0°F17.8°C 98% 4.3 mph S6.9 kmh S 9.0 mph14.5 kmh 30.39 in1029.1 mb 0.00 in0.0 mm 0.00 in0.0 mm 0.00 in0.0 mm
12:26 AM 64.4°F18.0°C 63.8°F17.7°C 98% 2.4 mph S3.9 kmh S 6.8 mph10.9 kmh 30.39 in1029.1 mb 0.00 in0.0 mm 0.00 in0.0 mm 0.00 in0.0 mm
12:31 AM 64.4°F18.0°C 63.8°F17.7°C 98% 4.5 mph S7.2 kmh S 5.4 mph8.7 kmh 30.39 in1029.1 mb 0.00 in0.0 mm 0.00 in0.0 mm 0.00 in0.0 mm
12:36 AM 64.4°F18.0°C 63.8°F17.7°C 98% 4.6 mph S7.4 kmh S 5.8 mph9.3 kmh 30.39 in1029.1 mb 0.00 in0.0 mm 0.00 in0.0 mm 0.00 in0.0 mm
12:41 AM 64.0°F17.8°C 63.4°F17.4°C 98% 2.2 mph S3.5 kmh S 5.8 mph9.3 kmh 30.39 in1029.1 mb 0.00 in0.0 mm 0.00 in0.0 mm 0.00 in0.0 mm
12:46 AM 64.0°F17.8°C 63.4°F17.4°C 98% 3.8 mph SSW6.1 kmh SSW 5.0 mph8.0 kmh 30.39 in1029.1 mb 0.00 in0.0 mm 0.00 in0.0 mm 0.00 in0.0 mm
12:52 AM 64.4°F18.0°C 63.8°F17.7°C 98% 4.3 mph S6.9 kmh S 6.8 mph10.9 kmh 30.39 in1029.1 mb 0.00 in0.0 mm 0.00 in0.0 mm 0.00 in0.0 mm
12:57 AM 64.6°F18.1°C 64.0°F17.8°C 98% 3.0 mph SSW4.8 kmh SSW 6.8 mph10.9 kmh 30.39 in1029.1 mb 0.00 in0.0 mm 0.00 in0.0 mm 0.00 in0.0 mm
01:04 AM 64.9°F18.3°C 64.3°F17.9°C 98% 5.2 mph S8.4 kmh S 7.2 mph11.6 kmh 30.39 in1029.1 mb 0.00 in0.0 mm 0.00 in0.0 mm 0.00 in0.0 mm
01:09 AM 65.1°F18.4°C 64.5°F18.1°C 98% 4.8 mph SSW7.7 kmh SSW 7.2 mph11.6 kmh 30.39 in1029.1 mb 0.00 in0.0 mm 0.00 in0.0 mm 0.00 in0.0 mm
01:14 AM 65.1°F18.4°C 64.5°F18.1°C 98% 4.0 mph S6.4 kmh S 6.8 mph10.9 kmh 30.39 in1029.1 mb 0.00 in0.0 mm 0.00 in0.0 mm 0.00 in0.0 mm
01:19 AM 65.1°F18.4°C 64.5°F18.1°C 98% 5.0 mph S8.0 kmh S 7.2 mph11.6 kmh 30.39 in1029.1 mb 0.00 in0.0 mm 0.00 in0.0 mm 0.00 in0.0 mm
01:27 AM 64.9°F18.3°C 64.3°F17.9°C 98% 3.9 mph S6.3 kmh S 7.2 mph11.6 kmh 30.39 in1029.1 mb 0.00 in0.0 mm 0.00 in0.0 mm 0.00 in0.0 mm
01:32 AM 64.9°F18.3°C 64.3°F17.9°C 98% 3.3 mph S5.3 kmh S 5.4 mph8.7 kmh 30.39 in1029.1 mb 0.00 in0.0 mm 0.00 in0.0 mm 0.00 in0.0 mm
01:37 AM 64.9°F18.3°C 64.3°F17.9°C 98% 4.4 mph S7.1 kmh S 5.4 mph8.7 kmh 30.39 in1029.1 mb 0.00 in0.0 mm 0.00 in0.0 mm 0.00 in0.0 mm
01:42 AM 64.9°F18.3°C 64.3°F17.9°C 98% 5.1 mph S8.2 kmh S 5.8 mph9.3 kmh 30.39 in1029.1 mb 0.00 in0.0 mm 0.00 in0.0 mm 0.00 in0.0 mm
01:47 AM 64.7°F18.2°C 64.1°F17.8°C 98% 4.4 mph S7.1 kmh S 5.8 mph9.3 kmh 30.39 in1029.1 mb 0.00 in0.0 mm 0.00 in0.0 mm 0.00 in0.0 mm
01:52 AM 64.9°F18.3°C 64.3°F17.9°C 98% 5.5 mph S8.9 kmh S 6.8 mph10.9 kmh 30.39 in1029.1 mb 0.00 in0.0 mm 0.00 in0.0 mm 0.00 in0.0 mm
01:58 AM 65.1°F18.4°C 64.5°F18.1°C 98% 5.7 mph S9.2 kmh S 7.6 mph12.2 kmh 30.39 in1029.1 mb 0.00 in0.0 mm 0.00 in0.0 mm 0.00 in0.0 mm
02:03 AM 64.9°F18.3°C 64.3°F17.9°C 98% 5.5 mph S8.9 kmh S 7.6 mph12.2 kmh 30.39 in1029.1 mb 0.00 in0.0 mm 0.00 in0.0 mm 0.00 in0.0 mm
02:09 AM 64.9°F18.3°C 64.3°F17.9°C 98% 5.6 mph S9.0 kmh S 7.2 mph11.6 kmh 30.39 in1029.1 mb 0.00 in0.0 mm 0.00 in0.0 mm 0.00 in0.0 mm
02:14 AM 64.9°F18.3°C 64.3°F17.9°C 98% 6.1 mph S9.8 kmh S 8.0 mph12.9 kmh 30.39 in1029.1 mb 0.00 in0.0 mm 0.00 in0.0 mm 0.00 in0.0 mm
02:20 AM 64.7°F18.2°C 64.1°F17.8°C 98% 6.8 mph S10.9 kmh S 9.8 mph15.8 kmh 30.39 in1029.1 mb 0.00 in0.0 mm 0.00 in0.0 mm 0.00 in0.0 mm
02:25 AM 64.6°F18.1°C 64.0°F17.8°C 98% 6.0 mph S9.7 kmh S 9.8 mph15.8 kmh 30.39 in1029.1 mb 0.00 in0.0 mm 0.00 in0.0 mm 0.00 in0.0 mm
02:31 AM 64.4°F18.0°C 63.8°F17.7°C 98% 5.2 mph S8.4 kmh S 9.4 mph15.1 kmh 30.39 in1029.1 mb 0.00 in0.0 mm 0.00 in0.0 mm 0.00 in0.0 mm
02:36 AM 64.2°F17.9°C 63.6°F17.6°C 98% 5.8 mph SSW9.3 kmh SSW 7.2 mph11.6 kmh 30.39 in1029.1 mb 0.00 in0.0 mm 0.00 in0.0 mm 0.00 in0.0 mm
02:42 AM 64.2°F17.9°C 63.6°F17.6°C 98% 5.6 mph S9.0 kmh S 8.6 mph13.8 kmh 30.39 in1029.1 mb 0.00 in0.0 mm 0.00 in0.0 mm 0.00 in0.0 mm
02:47 AM 64.0°F17.8°C 63.4°F17.4°C 98% 5.3 mph S8.5 kmh S 8.6 mph13.8 kmh 30.39 in1029.1 mb 0.00 in0.0 mm 0.00 in0.0 mm 0.00 in0.0 mm
02:52 AM 63.8°F17.7°C 63.2°F17.3°C 98% 4.5 mph SSW7.2 kmh SSW 7.6 mph12.2 kmh 30.39 in1029.1 mb 0.00 in0.0 mm 0.00 in0.0 mm 0.00 in0.0 mm
02:57 AM 63.8°F17.7°C 63.2°F17.3°C 98% 4.2 mph S6.8 kmh S 6.8 mph10.9 kmh 30.39 in1029.1 mb 0.00 in0.0 mm 0.00 in0.0 mm 0.00 in0.0 mm
03:02 AM 63.7°F17.6°C 63.1°F17.3°C 98% 4.4 mph SSW7.1 kmh SSW 6.8 mph10.9 kmh 30.39 in1029.1 mb 0.00 in0.0 mm 0.00 in0.0 mm 0.00 in0.0 mm
03:07 AM 63.5°F17.5°C 62.9°F17.2°C 98% 4.7 mph S7.6 kmh S 6.8 mph10.9 kmh 30.39 in1029.1 mb 0.00 in0.0 mm 0.00 in0.0 mm 0.00 in0.0 mm
03:14 AM 63.5°F17.5°C 62.9°F17.2°C 98% 5.0 mph S8.0 kmh S 7.2 mph11.6 kmh 30.39 in1029.1 mb 0.00 in0.0 mm 0.00 in0.0 mm 0.00 in0.0 mm
03:19 AM 63.3°F17.4°C 62.7°F17.1°C 98% 5.6 mph S9.0 kmh S 7.2 mph11.6 kmh 30.39 in1029.1 mb 0.00 in0.0 mm 0.00 in0.0 mm 0.00 in0.0 mm
03:25 AM 63.1°F17.3°C 62.5°F16.9°C 98% 4.7 mph SSW7.6 kmh SSW 7.2 mph11.6 kmh 30.39 in1029.1 mb 0.00 in0.0 mm 0.00 in0.0 mm 0.00 in0.0 mm
03:30 AM 63.1°F17.3°C 62.5°F16.9°C 98% 5.4 mph S8.7 kmh S 6.8 mph10.9 kmh 30.36 in1028.1 mb 0.00 in0.0 mm 0.00 in0.0 mm 0.00 in0.0 mm
03:35 AM 63.1°F17.3°C 62.5°F16.9°C 98% 3.8 mph S6.1 kmh S 8.0 mph12.9 kmh 30.36 in1028.1 mb 0.00 in0.0 mm 0.00 in0.0 mm 0.00 in0.0 mm
03:40 AM 62.9°F17.2°C 62.3°F16.8°C 98% 4.2 mph S6.8 kmh S 8.0 mph12.9 kmh 30.36 in1028.1 mb 0.00 in0.0 mm 0.00 in0.0 mm 0.00 in0.0 mm
03:45 AM 62.8°F17.1°C 62.2°F16.8°C 98% 3.6 mph SSW5.8 kmh SSW 6.2 mph10.0 kmh 30.36 in1028.1 mb 0.00 in0.0 mm 0.00 in0.0 mm 0.00 in0.0 mm
03:50 AM 62.8°F17.1°C 62.2°F16.8°C 98% 4.2 mph SSW6.8 kmh SSW 6.2 mph10.0 kmh 30.36 in1028.1 mb 0.00 in0.0 mm 0.00 in0.0 mm 0.00 in0.0 mm
03:55 AM 62.8°F17.1°C 62.2°F16.8°C 98% 4.3 mph S6.9 kmh S 5.4 mph8.7 kmh 30.36 in1028.1 mb 0.00 in0.0 mm 0.00 in0.0 mm 0.00 in0.0 mm
04:00 AM 62.8°F17.1°C 62.2°F16.8°C 98% 5.0 mph S8.0 kmh S 6.8 mph10.9 kmh 30.39 in1029.1 mb 0.00 in0.0 mm 0.00 in0.0 mm 0.00 in0.0 mm
04:06 AM 62.8°F17.1°C 62.2°F16.8°C 98% 5.6 mph S9.0 kmh S 7.2 mph11.6 kmh 30.39 in1029.1 mb 0.00 in0.0 mm 0.00 in0.0 mm 0.00 in0.0 mm
04:11 AM 62.8°F17.1°C 62.2°F16.8°C 98% 5.2 mph S8.4 kmh S 7.2 mph11.6 kmh 30.39 in1029.1 mb 0.00 in0.0 mm 0.00 in0.0 mm 0.00 in0.0 mm
04:16 AM 62.8°F17.1°C 62.2°F16.8°C 98% 4.1 mph S6.6 kmh S 7.2 mph11.6 kmh 30.39 in1029.1 mb 0.00 in0.0 mm 0.00 in0.0 mm 0.00 in0.0 mm
04:21 AM 62.8°F17.1°C 62.2°F16.8°C 98% 4.8 mph S7.7 kmh S 6.8 mph10.9 kmh 30.39 in1029.1 mb 0.00 in0.0 mm 0.00 in0.0 mm 0.00 in0.0 mm
04:28 AM 62.8°F17.1°C 62.2°F16.8°C 98% 5.1 mph S8.2 kmh S 6.8 mph10.9 kmh 30.39 in1029.1 mb 0.00 in0.0 mm 0.00 in0.0 mm 0.00 in0.0 mm
04:33 AM 62.8°F17.1°C 62.2°F16.8°C 98% 4.1 mph S6.6 kmh S 6.8 mph10.9 kmh 30.39 in1029.1 mb 0.00 in0.0 mm 0.00 in0.0 mm 0.00 in0.0 mm
04:38 AM 62.6°F17.0°C 62.0°F16.7°C 98% 3.7 mph S6.0 kmh S 5.8 mph9.3 kmh 30.39 in1029.1 mb 0.00 in0.0 mm 0.00 in0.0 mm 0.00 in0.0 mm
04:43 AM 62.6°F17.0°C 62.0°F16.7°C 98% 3.7 mph S6.0 kmh S 5.4 mph8.7 kmh 30.39 in1029.1 mb 0.00 in0.0 mm 0.00 in0.0 mm 0.00 in0.0 mm
04:49 AM 62.6°F17.0°C 62.0°F16.7°C 98% 4.0 mph SSW6.4 kmh SSW 6.2 mph10.0 kmh 30.39 in1029.1 mb 0.00 in0.0 mm 0.00 in0.0 mm 0.00 in0.0 mm
04:54 AM 62.6°F17.0°C 62.0°F16.7°C 98% 3.4 mph S5.5 kmh S 6.2 mph10.0 kmh 30.39 in1029.1 mb 0.00 in0.0 mm 0.00 in0.0 mm 0.00 in0.0 mm
04:59 AM 62.6°F17.0°C 62.0°F16.7°C 98% 3.1 mph SSW5.0 kmh SSW 5.4 mph8.7 kmh 30.39 in1029.1 mb 0.00 in0.0 mm 0.00 in0.0 mm 0.00 in0.0 mm
05:04 AM 62.6°F17.0°C 62.0°F16.7°C 98% 3.4 mph S5.5 kmh S 5.4 mph8.7 kmh 30.39 in1029.1 mb 0.00 in0.0 mm 0.00 in0.0 mm 0.00 in0.0 mm
05:11 AM 62.6°F17.0°C 62.0°F16.7°C 98% 4.3 mph S6.9 kmh S 5.8 mph9.3 kmh 30.39 in1029.1 mb 0.00 in0.0 mm 0.00 in0.0 mm 0.00 in0.0 mm
05:16 AM 62.8°F17.1°C 62.2°F16.8°C 98% 3.7 mph S6.0 kmh S 5.8 mph9.3 kmh 30.36 in1028.1 mb 0.00 in0.0 mm 0.00 in0.0 mm 0.00 in0.0 mm
05:21 AM 62.9°F17.2°C 62.3°F16.8°C 98% 5.9 mph S9.5 kmh S 8.6 mph13.8 kmh 30.36 in1028.1 mb 0.00 in0.0 mm 0.00 in0.0 mm 0.00 in0.0 mm
05:26 AM 63.1°F17.3°C 62.5°F16.9°C 98% 7.1 mph S11.4 kmh S 9.8 mph15.8 kmh 30.36 in1028.1 mb 0.00 in0.0 mm 0.00 in0.0 mm 0.00 in0.0 mm
05:31 AM 63.1°F17.3°C 62.5°F16.9°C 98% 6.5 mph S10.5 kmh S 12.0 mph19.3 kmh 30.39 in1029.1 mb 0.00 in0.0 mm 0.00 in0.0 mm 0.00 in0.0 mm
05:36 AM 63.3°F17.4°C 62.7°F17.1°C 98% 5.1 mph SSW8.2 kmh SSW 12.0 mph19.3 kmh 30.39 in1029.1 mb 0.00 in0.0 mm 0.00 in0.0 mm 0.00 in0.0 mm
05:41 AM 63.3°F17.4°C 62.7°F17.1°C 98% 4.0 mph SSW6.4 kmh SSW 9.4 mph15.1 kmh 30.39 in1029.1 mb 0.00 in0.0 mm 0.00 in0.0 mm 0.00 in0.0 mm
05:46 AM 63.3°F17.4°C 62.7°F17.1°C 98% 4.6 mph SSW7.4 kmh SSW 9.4 mph15.1 kmh 30.42 in1030.1 mb 0.00 in0.0 mm 0.00 in0.0 mm 0.00 in0.0 mm
05:51 AM 63.3°F17.4°C 62.7°F17.1°C 98% 5.3 mph SSW8.5 kmh SSW 8.0 mph12.9 kmh 30.42 in1030.1 mb 0.00 in0.0 mm 0.00 in0.0 mm 0.00 in0.0 mm
05:56 AM 63.3°F17.4°C 62.7°F17.1°C 98% 4.6 mph SSW7.4 kmh SSW 7.2 mph11.6 kmh 30.42 in1030.1 mb 0.00 in0.0 mm 0.00 in0.0 mm 0.00 in0.0 mm
06:01 AM 63.3°F17.4°C 62.7°F17.1°C 98% 6.2 mph S10.0 kmh S 12.6 mph20.3 kmh 30.39 in1029.1 mb 0.00 in0.0 mm 0.00 in0.0 mm 0.00 in0.0 mm
06:06 AM 63.3°F17.4°C 62.7°F17.1°C 98% 5.7 mph S9.2 kmh S 12.6 mph20.3 kmh 30.39 in1029.1 mb 0.00 in0.0 mm 0.00 in0.0 mm 0.00 in0.0 mm
06:11 AM 63.1°F17.3°C 62.5°F16.9°C 98% 3.5 mph SSW5.6 kmh SSW 6.8 mph10.9 kmh 30.39 in1029.1 mb 0.00 in0.0 mm 0.00 in0.0 mm 0.00 in0.0 mm
06:16 AM 63.3°F17.4°C 62.7°F17.1°C 98% 4.1 mph SSW6.6 kmh SSW 6.8 mph10.9 kmh 30.36 in1028.1 mb 0.00 in0.0 mm 0.00 in0.0 mm 0.00 in0.0 mm
06:21 AM 63.3°F17.4°C 62.7°F17.1°C 98% 3.1 mph SSW5.0 kmh SSW 5.4 mph8.7 kmh 30.36 in1028.1 mb 0.00 in0.0 mm 0.00 in0.0 mm 0.00 in0.0 mm
06:26 AM 63.3°F17.4°C 62.7°F17.1°C 98% 4.1 mph S6.6 kmh S 5.4 mph8.7 kmh 30.36 in1028.1 mb 0.00 in0.0 mm 0.00 in0.0 mm 0.00 in0.0 mm
06:31 AM 63.3°F17.4°C 62.7°F17.1°C 98% 3.0 mph SSW4.8 kmh SSW 5.4 mph8.7 kmh 30.39 in1029.1 mb 0.00 in0.0 mm 0.00 in0.0 mm 0.00 in0.0 mm
06:36 AM 63.3°F17.4°C 62.7°F17.1°C 98% 4.0 mph SSW6.4 kmh SSW 5.0 mph8.0 kmh 30.39 in1029.1 mb 0.00 in0.0 mm 0.00 in0.0 mm 0.00 in0.0 mm
06:41 AM 63.5°F17.5°C 62.9°F17.2°C 98% 4.2 mph SSW6.8 kmh SSW 6.2 mph10.0 kmh 30.39 in1029.1 mb 0.00 in0.0 mm 0.00 in0.0 mm 0.00 in0.0 mm
06:46 AM 63.7°F17.6°C 63.1°F17.3°C 98% 2.8 mph S4.5 kmh S 6.2 mph10.0 kmh 30.39 in1029.1 mb 0.00 in0.0 mm 0.00 in0.0 mm 0.00 in0.0 mm
06:51 AM 63.7°F17.6°C 63.1°F17.3°C 98% 4.4 mph SSW7.1 kmh SSW 6.2 mph10.0 kmh 30.39 in1029.1 mb 0.00 in0.0 mm 0.00 in0.0 mm 0.00 in0.0 mm
06:56 AM 63.7°F17.6°C 63.1°F17.3°C 98% 3.4 mph SSW5.5 kmh SSW 5.8 mph9.3 kmh 30.39 in1029.1 mb 0.00 in0.0 mm 0.00 in0.0 mm 0.00 in0.0 mm
07:01 AM 63.7°F17.6°C 63.1°F17.3°C 98% 4.6 mph S7.4 kmh S 5.4 mph8.7 kmh 30.39 in1029.1 mb 0.00 in0.0 mm 0.00 in0.0 mm 0.00 in0.0 mm
07:06 AM 63.7°F17.6°C 63.1°F17.3°C 98% 2.8 mph S4.5 kmh S 5.4 mph8.7 kmh 30.39 in1029.1 mb 0.00 in0.0 mm 0.00 in0.0 mm 0.00 in0.0 mm
07:11 AM 63.7°F17.6°C 63.1°F17.3°C 98% 3.3 mph SSW5.3 kmh SSW 4.4 mph7.1 kmh 30.39 in1029.1 mb 0.00 in0.0 mm 0.00 in0.0 mm 0.00 in0.0 mm
07:16 AM 63.8°F17.7°C 63.2°F17.3°C 98% 3.2 mph S5.1 kmh S 6.8 mph10.9 kmh 30.39 in1029.1 mb 0.00 in0.0 mm 0.00 in0.0 mm 0.00 in0.0 mm
07:21 AM 63.8°F17.7°C 63.2°F17.3°C 98% 4.1 mph S6.6 kmh S 6.8 mph10.9 kmh 30.39 in1029.1 mb 0.00 in0.0 mm 0.00 in0.0 mm 0.00 in0.0 mm
07:26 AM 64.0°F17.8°C 63.4°F17.4°C 98% 4.4 mph S7.1 kmh S 7.2 mph11.6 kmh 30.42 in1030.1 mb 0.00 in0.0 mm 0.00 in0.0 mm 0.00 in0.0 mm
07:32 AM 64.0°F17.8°C 63.4°F17.4°C 98% 4.0 mph S6.4 kmh S 7.2 mph11.6 kmh 30.42 in1030.1 mb 0.00 in0.0 mm 0.00 in0.0 mm 0.00 in0.0 mm
07:37 AM 64.0°F17.8°C 63.4°F17.4°C 98% 2.2 mph SSW3.5 kmh SSW 6.2 mph10.0 kmh 30.42 in1030.1 mb 0.00 in0.0 mm 0.00 in0.0 mm 0.00 in0.0 mm
07:43 AM 64.0°F17.8°C 63.4°F17.4°C 98% 4.5 mph S7.2 kmh S 5.4 mph8.7 kmh 30.42 in1030.1 mb 0.00 in0.0 mm 0.00 in0.0 mm 0.00 in0.0 mm
07:48 AM 64.2°F17.9°C 63.6°F17.6°C 98% 4.2 mph S6.8 kmh S 5.8 mph9.3 kmh 30.42 in1030.1 mb 0.00 in0.0 mm 0.00 in0.0 mm 0.00 in0.0 mm
07:53 AM 64.2°F17.9°C 63.6°F17.6°C 98% 3.5 mph S5.6 kmh S 5.8 mph9.3 kmh 30.42 in1030.1 mb 0.00 in0.0 mm 0.00 in0.0 mm 0.00 in0.0 mm
07:58 AM 64.4°F18.0°C 63.8°F17.7°C 98% 4.9 mph SW7.9 kmh SW 6.2 mph10.0 kmh 30.42 in1030.1 mb 0.00 in0.0 mm 0.00 in0.0 mm 0.00 in0.0 mm
08:04 AM 64.6°F18.1°C 64.0°F17.8°C 98% 5.6 mph SW9.0 kmh SW 8.0 mph12.9 kmh 30.42 in1030.1 mb 0.00 in0.0 mm 0.00 in0.0 mm 0.00 in0.0 mm
08:09 AM 64.6°F18.1°C 64.0°F17.8°C 98% 4.1 mph SW6.6 kmh SW 8.0 mph12.9 kmh 30.42 in1030.1 mb 0.00 in0.0 mm 0.00 in0.0 mm 0.00 in0.0 mm
08:15 AM 64.7°F18.2°C 64.1°F17.8°C 98% 3.9 mph SW6.3 kmh SW 7.2 mph11.6 kmh 30.45 in1031.2 mb 0.00 in0.0 mm 0.00 in0.0 mm 0.00 in0.0 mm
08:20 AM 64.7°F18.2°C 64.1°F17.8°C 98% 3.1 mph SW5.0 kmh SW 5.4 mph8.7 kmh 30.45 in1031.2 mb 0.00 in0.0 mm 0.00 in0.0 mm 0.00 in0.0 mm
08:26 AM 64.9°F18.3°C 64.3°F17.9°C 98% 3.7 mph SW6.0 kmh SW 5.4 mph8.7 kmh 30.45 in1031.2 mb 0.00 in0.0 mm 0.00 in0.0 mm 0.00 in0.0 mm
08:31 AM 64.9°F18.3°C 64.3°F17.9°C 98% 3.3 mph WNW5.3 kmh WNW 5.8 mph9.3 kmh 30.45 in1031.2 mb 0.00 in0.0 mm 0.00 in0.0 mm 0.00 in0.0 mm
08:36 AM 65.1°F18.4°C 64.5°F18.1°C 98% 3.1 mph SSW5.0 kmh SSW 5.8 mph9.3 kmh 30.45 in1031.2 mb 0.00 in0.0 mm 0.00 in0.0 mm 0.00 in0.0 mm
08:41 AM 65.3°F18.5°C 64.7°F18.2°C 98% 4.7 mph SW7.6 kmh SW 5.8 mph9.3 kmh 30.45 in1031.2 mb 0.00 in0.0 mm 0.00 in0.0 mm 0.00 in0.0 mm
08:46 AM 65.5°F18.6°C 64.9°F18.3°C 98% 3.7 mph SSW6.0 kmh SSW 6.2 mph10.0 kmh 30.45 in1031.2 mb 0.00 in0.0 mm 0.00 in0.0 mm 0.00 in0.0 mm
08:51 AM 65.6°F18.7°C 65.0°F18.3°C 98% 5.3 mph SW8.5 kmh SW 7.6 mph12.2 kmh 30.45 in1031.2 mb 0.00 in0.0 mm 0.00 in0.0 mm 0.00 in0.0 mm
08:57 AM 65.8°F18.8°C 65.2°F18.4°C 98% 4.5 mph WSW7.2 kmh WSW 7.6 mph12.2 kmh 30.45 in1031.2 mb 0.00 in0.0 mm 0.00 in0.0 mm 0.00 in0.0 mm
09:02 AM 65.8°F18.8°C 65.2°F18.4°C 98% 5.0 mph WSW8.0 kmh WSW 8.0 mph12.9 kmh 30.45 in1031.2 mb 0.00 in0.0 mm 0.00 in0.0 mm 0.00 in0.0 mm
09:07 AM 66.0°F18.9°C 65.1°F18.4°C 97% 4.9 mph SW7.9 kmh SW 8.0 mph12.9 kmh 30.45 in1031.2 mb 0.00 in0.0 mm 0.00 in0.0 mm 0.00 in0.0 mm
09:12 AM 66.0°F18.9°C 65.1°F18.4°C 97% 6.1 mph WSW9.8 kmh WSW 8.0 mph12.9 kmh 30.42 in1030.1 mb 0.00 in0.0 mm 0.00 in0.0 mm 0.00 in0.0 mm
09:17 AM 66.2°F19.0°C 65.3°F18.5°C 97% 3.3 mph S5.3 kmh S 8.6 mph13.8 kmh 30.42 in1030.1 mb 0.00 in0.0 mm 0.00 in0.0 mm 0.00 in0.0 mm
09:22 AM 66.0°F18.9°C 64.8°F18.2°C 96% 6.3 mph SSW10.1 kmh SSW 10.8 mph17.4 kmh 30.42 in1030.1 mb 0.00 in0.0 mm 0.00 in0.0 mm 0.00 in0.0 mm
09:29 AM 66.0°F18.9°C 64.8°F18.2°C 96% 4.7 mph W7.6 kmh W 10.8 mph17.4 kmh 30.47 in1031.8 mb 0.00 in0.0 mm 0.00 in0.0 mm 0.00 in0.0 mm
09:34 AM 66.0°F18.9°C 64.8°F18.2°C 96% 5.7 mph WSW9.2 kmh WSW 8.0 mph12.9 kmh 30.47 in1031.8 mb 0.00 in0.0 mm 0.00 in0.0 mm 0.00 in0.0 mm
09:39 AM 66.0°F18.9°C 64.8°F18.2°C 96% 4.9 mph WSW7.9 kmh WSW 9.4 mph15.1 kmh 30.47 in1031.8 mb 0.00 in0.0 mm 0.00 in0.0 mm 0.00 in0.0 mm
09:44 AM 66.4°F19.1°C 65.5°F18.6°C 97% 3.7 mph SSW6.0 kmh SSW 9.4 mph15.1 kmh 30.42 in1030.1 mb 0.00 in0.0 mm 0.00 in0.0 mm 0.00 in0.0 mm
09:49 AM 66.5°F19.2°C 65.3°F18.5°C 96% 5.0 mph SW8.0 kmh SW 7.2 mph11.6 kmh 30.42 in1030.1 mb 0.00 in0.0 mm 0.00 in0.0 mm 0.00 in0.0 mm
09:54 AM 66.7°F19.3°C 65.5°F18.6°C 96% 3.8 mph SSW6.1 kmh SSW 7.2 mph11.6 kmh 30.42 in1030.1 mb 0.00 in0.0 mm 0.00 in0.0 mm 0.00 in0.0 mm
10:00 AM 66.9°F19.4°C 65.3°F18.5°C 95% 4.2 mph SSW6.8 kmh SSW 7.6 mph12.2 kmh 30.45 in1031.2 mb 0.00 in0.0 mm 0.00 in0.0 mm 0.00 in0.0 mm
10:05 AM 67.1°F19.5°C 65.5°F18.6°C 95% 4.9 mph WSW7.9 kmh WSW 7.6 mph12.2 kmh 30.45 in1031.2 mb 0.00 in0.0 mm 0.00 in0.0 mm 0.00 in0.0 mm
10:10 AM 67.3°F19.6°C 65.4°F18.6°C 94% 5.2 mph SSW8.4 kmh SSW 7.6 mph12.2 kmh 30.45 in1031.2 mb 0.00 in0.0 mm 0.00 in0.0 mm 0.00 in0.0 mm
10:15 AM 67.6°F19.8°C 65.7°F18.7°C 94% 5.6 mph WNW9.0 kmh WNW 9.4 mph15.1 kmh 30.45 in1031.2 mb 0.00 in0.0 mm 0.00 in0.0 mm 0.00 in0.0 mm
10:22 AM 68.3°F20.2°C 65.8°F18.8°C 92% 6.3 mph WSW10.1 kmh WSW 8.0 mph12.9 kmh 30.45 in1031.2 mb 0.00 in0.0 mm 0.00 in0.0 mm 0.00 in0.0 mm
10:27 AM 68.9°F20.5°C 65.8°F18.8°C 90% 7.1 mph WSW11.4 kmh WSW 8.6 mph13.8 kmh 30.45 in1031.2 mb 0.00 in0.0 mm 0.00 in0.0 mm 0.00 in0.0 mm
10:32 AM 69.2°F20.7°C 66.4°F19.1°C 91% 4.0 mph SW6.4 kmh SW 8.6 mph13.8 kmh 30.45 in1031.2 mb 0.00 in0.0 mm 0.00 in0.0 mm 0.00 in0.0 mm
10:37 AM 69.2°F20.7°C 65.8°F18.8°C 89% 7.6 mph W12.2 kmh W 9.8 mph15.8 kmh 30.45 in1031.2 mb 0.00 in0.0 mm 0.00 in0.0 mm 0.00 in0.0 mm
10:42 AM 69.4°F20.8°C 66.0°F18.9°C 89% 5.7 mph WSW9.2 kmh WSW 9.8 mph15.8 kmh 30.45 in1031.2 mb 0.00 in0.0 mm 0.00 in0.0 mm 0.00 in0.0 mm
10:47 AM 69.2°F20.7°C 65.4°F18.6°C 88% 6.1 mph WSW9.8 kmh WSW 10.8 mph17.4 kmh 30.45 in1031.2 mb 0.00 in0.0 mm 0.00 in0.0 mm 0.00 in0.0 mm
10:54 AM 69.6°F20.9°C 65.8°F18.8°C 88% 5.6 mph SW9.0 kmh SW 10.8 mph17.4 kmh 30.45 in1031.2 mb 0.00 in0.0 mm 0.00 in0.0 mm 0.00 in0.0 mm
10:59 AM 69.4°F20.8°C 65.3°F18.5°C 87% 6.5 mph WSW10.5 kmh WSW 11.2 mph18.0 kmh 30.42 in1030.1 mb 0.00 in0.0 mm 0.00 in0.0 mm 0.00 in0.0 mm
11:04 AM 69.6°F20.9°C 65.2°F18.4°C 86% 5.1 mph SW8.2 kmh SW 11.2 mph18.0 kmh 30.42 in1030.1 mb 0.00 in0.0 mm 0.00 in0.0 mm 0.00 in0.0 mm
11:09 AM 69.6°F20.9°C 65.2°F18.4°C 86% 6.4 mph W10.3 kmh W 9.4 mph15.1 kmh 30.42 in1030.1 mb 0.00 in0.0 mm 0.00 in0.0 mm 0.00 in0.0 mm
11:15 AM 70.0°F21.1°C 65.6°F18.7°C 86% 5.5 mph WSW8.9 kmh WSW 9.8 mph15.8 kmh 30.45 in1031.2 mb 0.00 in0.0 mm 0.00 in0.0 mm 0.00 in0.0 mm
11:20 AM 70.1°F21.2°C 65.4°F18.6°C 85% 7.2 mph W11.6 kmh W 9.8 mph15.8 kmh 30.45 in1031.2 mb 0.00 in0.0 mm 0.00 in0.0 mm 0.00 in0.0 mm
11:25 AM 71.0°F21.7°C 66.6°F19.2°C 86% 4.0 mph SSW6.4 kmh SSW 9.8 mph15.8 kmh 30.45 in1031.2 mb 0.00 in0.0 mm 0.00 in0.0 mm 0.00 in0.0 mm
11:30 AM 71.2°F21.8°C 66.1°F18.9°C 84% 4.9 mph SW7.9 kmh SW 8.0 mph12.9 kmh 30.45 in1031.2 mb 0.00 in0.0 mm 0.00 in0.0 mm 0.00 in0.0 mm
11:36 AM 71.2°F21.8°C 65.4°F18.6°C 82% 5.8 mph W9.3 kmh W 8.0 mph12.9 kmh 30.45 in1031.2 mb 0.00 in0.0 mm 0.00 in0.0 mm 0.00 in0.0 mm
11:41 AM 71.6°F22.0°C 65.8°F18.8°C 82% 5.0 mph SW8.0 kmh SW 11.2 mph18.0 kmh 30.45 in1031.2 mb 0.00 in0.0 mm 0.00 in0.0 mm 0.00 in0.0 mm
11:46 AM 71.6°F22.0°C 65.5°F18.6°C 81% 5.4 mph SW8.7 kmh SW 11.2 mph18.0 kmh 30.45 in1031.2 mb 0.00 in0.0 mm 0.00 in0.0 mm 0.00 in0.0 mm
11:51 AM 71.8°F22.1°C 65.3°F18.5°C 80% 5.8 mph W9.3 kmh W 8.6 mph13.8 kmh 30.45 in1031.2 mb 0.00 in0.0 mm 0.00 in0.0 mm 0.00 in0.0 mm
11:57 AM 71.6°F22.0°C 65.5°F18.6°C 81% 5.8 mph SSW9.3 kmh SSW 9.8 mph15.8 kmh 30.45 in1031.2 mb 0.00 in0.0 mm 0.00 in0.0 mm 0.00 in0.0 mm
12:02 PM 72.3°F22.4°C 65.8°F18.8°C 80% 6.2 mph WSW10.0 kmh WSW 9.8 mph15.8 kmh 30.45 in1031.2 mb 0.00 in0.0 mm 0.00 in0.0 mm 0.00 in0.0 mm
12:07 PM 73.4°F23.0°C 66.5°F19.2°C 79% 4.8 mph SW7.7 kmh SW 9.4 mph15.1 kmh 30.45 in1031.2 mb 0.00 in0.0 mm 0.00 in0.0 mm 0.00 in0.0 mm
12:12 PM 75.2°F24.0°C 67.2°F19.6°C 76% 7.1 mph SSW11.4 kmh SSW 19.6 mph31.5 kmh 30.42 in1030.1 mb 0.00 in0.0 mm 0.00 in0.0 mm 0.00 in0.0 mm
12:17 PM 75.4°F24.1°C 66.3°F19.1°C 73% 6.4 mph WSW10.3 kmh WSW 19.6 mph31.5 kmh 30.42 in1030.1 mb 0.00 in0.0 mm 0.00 in0.0 mm 0.00 in0.0 mm
12:22 PM 75.4°F24.1°C 66.3°F19.1°C 73% 7.1 mph SSW11.4 kmh SSW 12.6 mph20.3 kmh 30.42 in1030.1 mb 0.00 in0.0 mm 0.00 in0.0 mm 0.00 in0.0 mm
12:27 PM 75.4°F24.1°C 65.5°F18.6°C 71% 4.0 mph W6.4 kmh W 12.6 mph20.3 kmh 30.42 in1030.1 mb 0.00 in0.0 mm 0.00 in0.0 mm 0.00 in0.0 mm
12:32 PM 75.4°F24.1°C 65.5°F18.6°C 71% 4.7 mph W7.6 kmh W 8.6 mph13.8 kmh 30.42 in1030.1 mb 0.00 in0.0 mm 0.00 in0.0 mm 0.00 in0.0 mm
12:37 PM 75.9°F24.4°C 65.6°F18.7°C 70% 6.2 mph W10.0 kmh W 11.2 mph18.0 kmh 30.42 in1030.1 mb 0.00 in0.0 mm 0.00 in0.0 mm 0.00 in0.0 mm
12:42 PM 76.3°F24.6°C 65.5°F18.6°C 69% 5.8 mph SW9.3 kmh SW 11.2 mph18.0 kmh 30.39 in1029.1 mb 0.00 in0.0 mm 0.00 in0.0 mm 0.00 in0.0 mm
12:47 PM 76.3°F24.6°C 65.5°F18.6°C 69% 6.2 mph WSW10.0 kmh WSW 13.0 mph20.9 kmh 30.39 in1029.1 mb 0.00 in0.0 mm 0.00 in0.0 mm 0.00 in0.0 mm
12:52 PM 76.6°F24.8°C 66.2°F19.0°C 70% 5.5 mph WSW8.9 kmh WSW 13.0 mph20.9 kmh 30.39 in1029.1 mb 0.00 in0.0 mm 0.00 in0.0 mm 0.00 in0.0 mm
12:57 PM 76.1°F24.5°C 64.9°F18.3°C 68% 5.9 mph WSW9.5 kmh WSW 8.0 mph12.9 kmh 30.39 in1029.1 mb 0.00 in0.0 mm 0.00 in0.0 mm 0.00 in0.0 mm
01:02 PM 76.3°F24.6°C 65.5°F18.6°C 69% 8.1 mph SSW13.0 kmh SSW 10.8 mph17.4 kmh 30.39 in1029.1 mb 0.00 in0.0 mm 0.00 in0.0 mm 0.00 in0.0 mm
01:08 PM 75.7°F24.3°C 65.0°F18.3°C 69% 5.6 mph SW9.0 kmh SW 10.8 mph17.4 kmh 30.39 in1029.1 mb 0.00 in0.0 mm 0.00 in0.0 mm 0.00 in0.0 mm
01:12 PM 76.8°F24.9°C 66.0°F18.9°C 69% 6.0 mph S9.7 kmh S 12.6 mph20.3 kmh 30.36 in1028.1 mb 0.00 in0.0 mm 0.00 in0.0 mm 0.00 in0.0 mm
01:18 PM 76.6°F24.8°C 65.8°F18.8°C 69% 5.4 mph SSW8.7 kmh SSW 14.4 mph23.2 kmh 30.36 in1028.1 mb 0.00 in0.0 mm 0.00 in0.0 mm 0.00 in0.0 mm
01:23 PM 78.4°F25.8°C 66.3°F19.1°C 66% 7.5 mph S12.1 kmh S 14.4 mph23.2 kmh 30.36 in1028.1 mb 0.00 in0.0 mm 0.00 in0.0 mm 0.00 in0.0 mm
01:51 PM 80.4°F26.9°C 65.4°F18.6°C 60% 10.2 mph S16.4 kmh S 18.4 mph29.6 kmh 30.39 in1029.1 mb 0.00 in0.0 mm 0.00 in0.0 mm 0.00 in0.0 mm
01:56 PM 80.4°F26.9°C 65.4°F18.6°C 60% 4.6 mph SW7.4 kmh SW 18.4 mph29.6 kmh 30.39 in1029.1 mb 0.00 in0.0 mm 0.00 in0.0 mm 0.00 in0.0 mm
02:01 PM 81.3°F27.4°C 65.8°F18.8°C 59% 8.0 mph S12.9 kmh S 14.8 mph23.8 kmh 30.39 in1029.1 mb 0.00 in0.0 mm 0.00 in0.0 mm 0.00 in0.0 mm
02:06 PM 80.4°F26.9°C 64.4°F18.0°C 58% 7.9 mph W12.7 kmh W 13.8 mph22.2 kmh 30.39 in1029.1 mb 0.00 in0.0 mm 0.00 in0.0 mm 0.00 in0.0 mm
02:11 PM 80.6°F27.0°C 64.6°F18.1°C 58% 5.5 mph SW8.9 kmh SW 12.0 mph19.3 kmh 30.39 in1029.1 mb 0.00 in0.0 mm 0.00 in0.0 mm 0.00 in0.0 mm
02:16 PM 80.0°F26.7°C 64.5°F18.1°C 59% 11.9 mph SSW19.2 kmh SSW 17.4 mph28.0 kmh 30.39 in1029.1 mb 0.00 in0.0 mm 0.00 in0.0 mm 0.00 in0.0 mm
02:21 PM 79.7°F26.5°C 64.3°F17.9°C 59% 7.6 mph NW12.2 kmh NW 17.4 mph28.0 kmh 30.39 in1029.1 mb 0.00 in0.0 mm 0.00 in0.0 mm 0.00 in0.0 mm
02:26 PM 79.9°F26.6°C 64.4°F18.0°C 59% 9.2 mph S14.8 kmh S 12.0 mph19.3 kmh 30.36 in1028.1 mb 0.00 in0.0 mm 0.00 in0.0 mm 0.00 in0.0 mm
02:31 PM 80.2°F26.8°C 64.2°F17.9°C 58% 9.3 mph SW15.0 kmh SW 17.4 mph28.0 kmh 30.36 in1028.1 mb 0.00 in0.0 mm 0.00 in0.0 mm 0.00 in0.0 mm
02:36 PM 80.0°F26.7°C 64.0°F17.8°C 58% 6.7 mph SW10.8 kmh SW 17.4 mph28.0 kmh 30.36 in1028.1 mb 0.00 in0.0 mm 0.00 in0.0 mm 0.00 in0.0 mm
02:41 PM 79.3°F26.3°C 64.4°F18.0°C 60% 9.1 mph S14.6 kmh S 13.0 mph20.9 kmh 30.36 in1028.1 mb 0.00 in0.0 mm 0.00 in0.0 mm 0.00 in0.0 mm
02:46 PM 78.4°F25.8°C 64.0°F17.8°C 61% 6.8 mph SSW10.9 kmh SSW 13.0 mph20.9 kmh 30.36 in1028.1 mb 0.00 in0.0 mm 0.00 in0.0 mm 0.00 in0.0 mm
02:51 PM 77.9°F25.5°C 63.5°F17.5°C 61% 6.2 mph WSW10.0 kmh WSW 9.4 mph15.1 kmh 30.36 in1028.1 mb 0.00 in0.0 mm 0.00 in0.0 mm 0.00 in0.0 mm
02:56 PM 77.3°F25.2°C 63.4°F17.4°C 62% 5.6 mph WSW9.0 kmh WSW 9.4 mph15.1 kmh 30.36 in1028.1 mb 0.00 in0.0 mm 0.00 in0.0 mm 0.00 in0.0 mm
03:01 PM 78.1°F25.6°C 64.6°F18.1°C 63% 5.6 mph SW9.0 kmh SW 11.2 mph18.0 kmh 30.36 in1028.1 mb 0.00 in0.0 mm 0.00 in0.0 mm 0.00 in0.0 mm
03:06 PM 78.2°F25.7°C 64.3°F17.9°C 62% 6.2 mph SW10.0 kmh SW 11.2 mph18.0 kmh 30.36 in1028.1 mb 0.00 in0.0 mm 0.00 in0.0 mm 0.00 in0.0 mm
03:11 PM 78.4°F25.8°C 64.5°F18.1°C 62% 5.3 mph SSW8.5 kmh SSW 9.8 mph15.8 kmh 30.36 in1028.1 mb 0.00 in0.0 mm 0.00 in0.0 mm 0.00 in0.0 mm
03:16 PM 78.4°F25.8°C 64.0°F17.8°C 61% 7.0 mph S11.3 kmh S 11.6 mph18.7 kmh 30.36 in1028.1 mb 0.00 in0.0 mm 0.00 in0.0 mm 0.00 in0.0 mm
03:22 PM 76.6°F24.8°C 63.2°F17.3°C 63% 7.4 mph SW11.9 kmh SW 11.6 mph18.7 kmh 30.36 in1028.1 mb 0.00 in0.0 mm 0.00 in0.0 mm 0.00 in0.0 mm
03:27 PM 75.7°F24.3°C 63.3°F17.4°C 65% 6.5 mph S10.5 kmh S 11.6 mph18.7 kmh 30.36 in1028.1 mb 0.00 in0.0 mm 0.00 in0.0 mm 0.00 in0.0 mm
03:33 PM 75.5°F24.2°C 63.5°F17.5°C 66% 6.5 mph S10.5 kmh S 8.6 mph13.8 kmh 30.36 in1028.1 mb 0.00 in0.0 mm 0.00 in0.0 mm 0.00 in0.0 mm
03:38 PM 75.4°F24.1°C 63.8°F17.7°C 67% 4.7 mph S7.6 kmh S 8.6 mph13.8 kmh 30.36 in1028.1 mb 0.00 in0.0 mm 0.00 in0.0 mm 0.00 in0.0 mm
03:43 PM 75.4°F24.1°C 63.8°F17.7°C 67% 5.6 mph SSW9.0 kmh SSW 8.6 mph13.8 kmh 30.33 in1027.1 mb 0.00 in0.0 mm 0.00 in0.0 mm 0.00 in0.0 mm
03:48 PM 75.9°F24.4°C 64.3°F17.9°C 67% 7.1 mph SSW11.4 kmh SSW 9.8 mph15.8 kmh 30.33 in1027.1 mb 0.00 in0.0 mm 0.00 in0.0 mm 0.00 in0.0 mm
03:53 PM 76.6°F24.8°C 64.6°F18.1°C 66% 6.9 mph S11.1 kmh S 12.6 mph20.3 kmh 30.33 in1027.1 mb 0.00 in0.0 mm 0.00 in0.0 mm 0.00 in0.0 mm
03:58 PM 77.2°F25.1°C 64.2°F17.9°C 64% 6.0 mph SW9.7 kmh SW 12.6 mph20.3 kmh 30.33 in1027.1 mb 0.00 in0.0 mm 0.00 in0.0 mm 0.00 in0.0 mm
04:03 PM 77.3°F25.2°C 63.9°F17.7°C 63% 5.9 mph S9.5 kmh S 9.4 mph15.1 kmh 30.33 in1027.1 mb 0.00 in0.0 mm 0.00 in0.0 mm 0.00 in0.0 mm
04:08 PM 77.3°F25.2°C 63.9°F17.7°C 63% 6.3 mph SW10.1 kmh SW 11.6 mph18.7 kmh 30.33 in1027.1 mb 0.00 in0.0 mm 0.00 in0.0 mm 0.00 in0.0 mm
04:13 PM 77.5°F25.3°C 63.6°F17.6°C 62% 10.3 mph S16.6 kmh S 17.4 mph28.0 kmh 30.33 in1027.1 mb 0.00 in0.0 mm 0.00 in0.0 mm 0.00 in0.0 mm
04:18 PM 77.0°F25.0°C 63.6°F17.6°C 63% 3.9 mph SW6.3 kmh SW 17.4 mph28.0 kmh 30.33 in1027.1 mb 0.00 in0.0 mm 0.00 in0.0 mm 0.00 in0.0 mm
04:24 PM 76.8°F24.9°C 63.4°F17.4°C 63% 4.7 mph S7.6 kmh S 10.8 mph17.4 kmh 30.33 in1027.1 mb 0.00 in0.0 mm 0.00 in0.0 mm 0.00 in0.0 mm
04:29 PM 76.6°F24.8°C 63.7°F17.6°C 64% 3.2 mph SE5.1 kmh SE 8.0 mph12.9 kmh 30.33 in1027.1 mb 0.00 in0.0 mm 0.00 in0.0 mm 0.00 in0.0 mm
04:47 PM 76.1°F24.5°C 63.6°F17.6°C 65% 4.0 mph SW6.4 kmh SW 14.8 mph23.8 kmh 30.33 in1027.1 mb 0.00 in0.0 mm 0.00 in0.0 mm 0.00 in0.0 mm
04:57 PM 75.9°F24.4°C 63.0°F17.2°C 64% 7.6 mph S12.2 kmh S 10.8 mph17.4 kmh 30.33 in1027.1 mb 0.00 in0.0 mm 0.00 in0.0 mm 0.00 in0.0 mm
05:02 PM 75.9°F24.4°C 63.0°F17.2°C 64% 8.4 mph S13.5 kmh S 10.8 mph17.4 kmh 30.33 in1027.1 mb 0.00 in0.0 mm 0.00 in0.0 mm 0.00 in0.0 mm
05:07 PM 75.7°F24.3°C 62.8°F17.1°C 64% 4.7 mph SW7.6 kmh SW 10.8 mph17.4 kmh 30.33 in1027.1 mb 0.00 in0.0 mm 0.00 in0.0 mm 0.00 in0.0 mm
05:12 PM 75.7°F24.3°C 63.3°F17.4°C 65% 4.9 mph S7.9 kmh S 7.2 mph11.6 kmh 30.33 in1027.1 mb 0.00 in0.0 mm 0.00 in0.0 mm 0.00 in0.0 mm
05:34 PM 74.6°F23.7°C 63.1°F17.3°C 67% 3.4 mph SSW5.5 kmh SSW 5.4 mph8.7 kmh 30.33 in1027.1 mb 0.00 in0.0 mm 0.00 in0.0 mm 0.00 in0.0 mm
05:39 PM 74.8°F23.8°C 63.3°F17.4°C 67% 6.7 mph S10.8 kmh S 8.0 mph12.9 kmh 30.33 in1027.1 mb 0.00 in0.0 mm 0.00 in0.0 mm 0.00 in0.0 mm
05:44 PM 74.6°F23.7°C 63.1°F17.3°C 67% 4.0 mph SSW6.4 kmh SSW 8.0 mph12.9 kmh 30.33 in1027.1 mb 0.00 in0.0 mm 0.00 in0.0 mm 0.00 in0.0 mm
05:49 PM 74.3°F23.5°C 63.2°F17.3°C 68% 2.5 mph SSE4.0 kmh SSE 6.8 mph10.9 kmh 30.33 in1027.1 mb 0.00 in0.0 mm 0.00 in0.0 mm 0.00 in0.0 mm
06:08 PM 73.2°F22.9°C 62.6°F17.0°C 69% 5.5 mph S8.9 kmh S 5.8 mph9.3 kmh 30.33 in1027.1 mb 0.00 in0.0 mm 0.00 in0.0 mm 0.00 in0.0 mm
06:18 PM 72.8°F22.7°C 63.0°F17.2°C 71% 2.9 mph SSW4.7 kmh SSW 7.6 mph12.2 kmh 30.36 in1028.1 mb 0.00 in0.0 mm 0.00 in0.0 mm 0.00 in0.0 mm
06:23 PM 72.1°F22.3°C 62.3°F16.8°C 71% 2.4 mph S3.9 kmh S 5.4 mph8.7 kmh 30.36 in1028.1 mb 0.00 in0.0 mm 0.00 in0.0 mm 0.00 in0.0 mm
06:28 PM 71.8°F22.1°C 62.4°F16.9°C 72% 3.5 mph SSE5.6 kmh SSE 5.4 mph8.7 kmh 30.36 in1028.1 mb 0.00 in0.0 mm 0.00 in0.0 mm 0.00 in0.0 mm
06:48 PM 70.9°F21.6°C 63.0°F17.2°C 76% 2.7 mph SSE4.3 kmh SSE 5.0 mph8.0 kmh 30.36 in1028.1 mb 0.00 in0.0 mm 0.00 in0.0 mm 0.00 in0.0 mm
06:57 PM 69.8°F21.0°C 62.0°F16.7°C 76% Calm Calm 2.6 mph4.2 kmh 30.36 in1028.1 mb 0.00 in0.0 mm 0.00 in0.0 mm 0.00 in0.0 mm
07:02 PM 69.2°F20.7°C 62.1°F16.7°C 78% Calm Calm -- 30.36 in1028.1 mb 0.00 in0.0 mm 0.00 in0.0 mm 0.00 in0.0 mm
07:07 PM 69.6°F20.9°C 62.8°F17.1°C 79% 4.6 mph S7.4 kmh S 5.4 mph8.7 kmh 30.36 in1028.1 mb 0.00 in0.0 mm 0.00 in0.0 mm 0.00 in0.0 mm
07:12 PM 69.8°F21.0°C 63.0°F17.2°C 79% 4.1 mph S6.6 kmh S 5.4 mph8.7 kmh 30.36 in1028.1 mb 0.00 in0.0 mm 0.00 in0.0 mm 0.00 in0.0 mm
07:25 PM 68.9°F20.5°C 62.5°F16.9°C 80% Calm Calm 4.0 mph6.4 kmh 30.36 in1028.1 mb 0.00 in0.0 mm 0.00 in0.0 mm 0.00 in0.0 mm
07:34 PM 68.2°F20.1°C 61.8°F16.6°C 80% Calm Calm -- 30.36 in1028.1 mb 0.00 in0.0 mm 0.00 in0.0 mm 0.00 in0.0 mm
07:40 PM 68.0°F20.0°C 62.6°F17.0°C 83% 3.9 mph SSE6.3 kmh SSE 5.4 mph8.7 kmh 30.36 in1028.1 mb 0.00 in0.0 mm 0.00 in0.0 mm 0.00 in0.0 mm
07:45 PM 68.2°F20.1°C 62.5°F16.9°C 82% 3.5 mph S5.6 kmh S 5.8 mph9.3 kmh 30.39 in1029.1 mb 0.00 in0.0 mm 0.00 in0.0 mm 0.00 in0.0 mm
08:03 PM 66.5°F19.2°C 61.5°F16.4°C 84% Calm Calm 5.0 mph8.0 kmh 30.36 in1028.1 mb 0.00 in0.0 mm 0.00 in0.0 mm 0.00 in0.0 mm
08:11 PM 66.2°F19.0°C 61.5°F16.4°C 85% Calm Calm -- 30.36 in1028.1 mb 0.00 in0.0 mm 0.00 in0.0 mm 0.00 in0.0 mm
08:16 PM 66.0°F18.9°C 61.7°F16.5°C 86% Calm Calm -- 30.39 in1029.1 mb 0.00 in0.0 mm 0.00 in0.0 mm 0.00 in0.0 mm
08:21 PM 65.6°F18.7°C 61.6°F16.4°C 87% Calm Calm -- 30.39 in1029.1 mb 0.00 in0.0 mm 0.00 in0.0 mm 0.00 in0.0 mm
08:39 PM 65.1°F18.4°C 61.7°F16.5°C 89% Calm Calm -- 30.39 in1029.1 mb 0.00 in0.0 mm 0.00 in0.0 mm 0.00 in0.0 mm
08:44 PM 64.7°F18.2°C 61.3°F16.3°C 89% Calm Calm -- 30.39 in1029.1 mb 0.00 in0.0 mm 0.00 in0.0 mm 0.00 in0.0 mm
08:49 PM 64.6°F18.1°C 61.5°F16.4°C 90% Calm Calm -- 30.39 in1029.1 mb 0.00 in0.0 mm 0.00 in0.0 mm 0.00 in0.0 mm
08:54 PM 64.2°F17.9°C 61.2°F16.2°C 90% Calm Calm -- 30.39 in1029.1 mb 0.00 in0.0 mm 0.00 in0.0 mm 0.00 in0.0 mm
08:59 PM 64.4°F18.0°C 61.3°F16.3°C 90% Calm Calm 1.8 mph2.9 kmh 30.39 in1029.1 mb 0.00 in0.0 mm 0.00 in0.0 mm 0.00 in0.0 mm
09:11 PM 63.8°F17.7°C 61.1°F16.2°C 91% Calm Calm -- 30.39 in1029.1 mb 0.00 in0.0 mm 0.00 in0.0 mm 0.00 in0.0 mm
09:19 PM 63.7°F17.6°C 61.0°F16.1°C 91% Calm Calm -- 30.39 in1029.1 mb 0.00 in0.0 mm 0.00 in0.0 mm 0.00 in0.0 mm
09:26 PM 63.3°F17.4°C 60.9°F16.1°C 92% Calm Calm -- 30.39 in1029.1 mb 0.00 in0.0 mm 0.00 in0.0 mm 0.00 in0.0 mm
09:31 PM 62.8°F17.1°C 60.4°F15.8°C 92% Calm Calm -- 30.39 in1029.1 mb 0.00 in0.0 mm 0.00 in0.0 mm 0.00 in0.0 mm
09:48 PM 62.8°F17.1°C 61.0°F16.1°C 94% 1.8 mph SSE2.9 kmh SSE 2.6 mph4.2 kmh 30.39 in1029.1 mb 0.00 in0.0 mm 0.00 in0.0 mm 0.00 in0.0 mm
09:53 PM 62.8°F17.1°C 61.0°F16.1°C 94% 1.8 mph SSE2.9 kmh SSE 2.6 mph4.2 kmh 30.39 in1029.1 mb 0.00 in0.0 mm 0.00 in0.0 mm 0.00 in0.0 mm
09:58 PM 62.6°F17.0°C 60.8°F16.0°C 94% Calm Calm 1.8 mph2.9 kmh 30.39 in1029.1 mb 0.00 in0.0 mm 0.00 in0.0 mm 0.00 in0.0 mm
10:03 PM 62.4°F16.9°C 60.6°F15.9°C 94% Calm Calm -- 30.39 in1029.1 mb 0.00 in0.0 mm 0.00 in0.0 mm 0.00 in0.0 mm
10:08 PM 62.6°F17.0°C 60.8°F16.0°C 94% Calm Calm -- 30.39 in1029.1 mb 0.00 in0.0 mm 0.00 in0.0 mm 0.00 in0.0 mm
10:20 PM 63.8°F17.7°C 62.9°F17.2°C 97% 4.7 mph S7.6 kmh S 5.8 mph9.3 kmh 30.39 in1029.1 mb 0.00 in0.0 mm 0.00 in0.0 mm 0.00 in0.0 mm
10:27 PM 64.4°F18.0°C 63.2°F17.3°C 96% 5.2 mph S8.4 kmh S 7.2 mph11.6 kmh 30.36 in1028.1 mb 0.00 in0.0 mm 0.00 in0.0 mm 0.00 in0.0 mm
10:32 PM 64.2°F17.9°C 62.7°F17.1°C 95% 2.9 mph S4.7 kmh S 7.2 mph11.6 kmh 30.36 in1028.1 mb 0.00 in0.0 mm 0.00 in0.0 mm 0.00 in0.0 mm
10:37 PM 63.8°F17.7°C 62.3°F16.8°C 95% 2.4 mph SSE3.9 kmh SSE 5.0 mph8.0 kmh 30.36 in1028.1 mb 0.00 in0.0 mm 0.00 in0.0 mm 0.00 in0.0 mm
10:42 PM 63.8°F17.7°C 62.6°F17.0°C 96% 4.8 mph S7.7 kmh S 6.2 mph10.0 kmh 30.36 in1028.1 mb 0.00 in0.0 mm 0.00 in0.0 mm 0.00 in0.0 mm
10:53 PM 64.4°F18.0°C 62.9°F17.2°C 95% 4.7 mph S7.6 kmh S 5.8 mph9.3 kmh 30.36 in1028.1 mb 0.00 in0.0 mm 0.00 in0.0 mm 0.00 in0.0 mm
11:01 PM 64.2°F17.9°C 62.4°F16.9°C 94% 4.2 mph SSE6.8 kmh SSE 5.8 mph9.3 kmh 30.39 in1029.1 mb 0.00 in0.0 mm 0.00 in0.0 mm 0.00 in0.0 mm
11:06 PM 64.2°F17.9°C 62.7°F17.1°C 95% 3.1 mph S5.0 kmh S 5.8 mph9.3 kmh 30.39 in1029.1 mb 0.00 in0.0 mm 0.00 in0.0 mm 0.00 in0.0 mm
11:11 PM 64.2°F17.9°C 62.7°F17.1°C 95% 4.6 mph S7.4 kmh S 5.4 mph8.7 kmh 30.39 in1029.1 mb 0.00 in0.0 mm 0.00 in0.0 mm 0.00 in0.0 mm
11:16 PM 64.2°F17.9°C 62.7°F17.1°C 95% 4.3 mph SSE6.9 kmh SSE 5.8 mph9.3 kmh 30.39 in1029.1 mb 0.00 in0.0 mm 0.00 in0.0 mm 0.00 in0.0 mm
11:21 PM 64.2°F17.9°C 62.7°F17.1°C 95% 4.1 mph SSE6.6 kmh SSE 6.2 mph10.0 kmh 30.39 in1029.1 mb 0.00 in0.0 mm 0.00 in0.0 mm 0.00 in0.0 mm
11:26 PM 64.0°F17.8°C 62.5°F16.9°C 95% 4.7 mph S7.6 kmh S 6.2 mph10.0 kmh 30.39 in1029.1 mb 0.00 in0.0 mm 0.00 in0.0 mm 0.00 in0.0 mm
11:35 PM 63.3°F17.4°C 61.8°F16.6°C 95% 2.4 mph SSE3.9 kmh SSE 5.8 mph9.3 kmh 30.39 in1029.1 mb 0.00 in0.0 mm 0.00 in0.0 mm 0.00 in0.0 mm
11:40 PM 63.5°F17.5°C 62.3°F16.8°C 96% 5.2 mph S8.4 kmh S 5.8 mph9.3 kmh 30.39 in1029.1 mb 0.00 in0.0 mm 0.00 in0.0 mm 0.00 in0.0 mm
11:45 PM 63.5°F17.5°C 62.3°F16.8°C 96% 3.0 mph S4.8 kmh S 5.8 mph9.3 kmh 30.36 in1028.1 mb 0.00 in0.0 mm 0.00 in0.0 mm 0.00 in0.0 mm
11:50 PM 62.9°F17.2°C 61.4°F16.3°C 95% Calm Calm 5.8 mph9.3 kmh 30.36 in1028.1 mb 0.00 in0.0 mm 0.00 in0.0 mm 0.00 in0.0 mm
11:58 PM 62.8°F17.1°C 61.6°F16.4°C 96% 3.4 mph SSE5.5 kmh SSE 5.0 mph8.0 kmh 30.36 in1028.1 mb 0.00 in0.0 mm 0.00 in0.0 mm 0.00 in0.0 mm